TimeCST,TemperatureF,Dew PointF,Humidity,Sea Level PressureIn,VisibilityMPH,Wind Direction,Wind SpeedMPH,Gust SpeedMPH,PrecipitationIn,Events,Conditions,WindDirDegrees,DateUTC
12:53 AM,57.9,39.9,51,30.25,10.0,NE,3.5,-,N/A,,Overcast,50,2012-11-16 06:53:00
1:53 AM,57.9,41.0,53,30.25,10.0,Calm,Calm,-,N/A,,Overcast,0,2012-11-16 07:53:00
2:53 AM,57.0,39.0,51,30.25,10.0,Calm,Calm,-,N/A,,Overcast,0,2012-11-16 08:53:00
3:53 AM,57.9,39.0,49,30.25,10.0,NNE,3.5,-,N/A,,Overcast,30,2012-11-16 09:53:00
4:53 AM,57.0,39.0,51,30.25,10.0,North,3.5,-,N/A,,Overcast,10,2012-11-16 10:53:00
5:53 AM,57.0,39.9,53,30.26,10.0,NE,3.5,-,N/A,,Overcast,50,2012-11-16 11:53:00
6:53 AM,57.0,39.9,53,30.28,10.0,NNE,6.9,-,N/A,,Overcast,20,2012-11-16 12:53:00
7:53 AM,55.9,39.0,53,30.30,10.0,NE,6.9,-,N/A,,Overcast,50,2012-11-16 13:53:00
8:53 AM,57.0,37.9,49,30.32,10.0,NE,9.2,-,N/A,,Overcast,50,2012-11-16 14:53:00
9:53 AM,59.0,37.9,46,30.34,10.0,ENE,6.9,-,N/A,,Overcast,60,2012-11-16 15:53:00
10:53 AM,63.0,37.0,38,30.32,10.0,NE,6.9,-,N/A,,Scattered Clouds,40,2012-11-16 16:53:00
11:53 AM,66.0,39.0,37,30.30,10.0,NE,10.4,-,N/A,,Mostly Cloudy,50,2012-11-16 17:53:00
12:53 PM,68.0,39.0,35,30.27,10.0,NE,11.5,-,N/A,,Scattered Clouds,40,2012-11-16 18:53:00
1:53 PM,69.1,39.0,33,30.24,10.0,NE,8.1,16.1,N/A,,Partly Cloudy,50,2012-11-16 19:53:00
2:53 PM,70.0,39.9,33,30.24,10.0,ENE,9.2,-,N/A,,Partly Cloudy,60,2012-11-16 20:53:00
3:53 PM,68.0,39.0,35,30.24,10.0,East,10.4,-,N/A,,Partly Cloudy,90,2012-11-16 21:53:00
4:53 PM,64.9,37.9,37,30.24,10.0,East,5.8,-,N/A,,Scattered Clouds,90,2012-11-16 22:53:00
5:53 PM,62.1,37.0,39,30.25,10.0,ENE,5.8,-,N/A,,Clear,70,2012-11-16 23:53:00
6:53 PM,57.9,36.0,44,30.27,10.0,Calm,Calm,-,N/A,,Partly Cloudy,0,2012-11-17 00:53:00
7:53 PM,57.0,35.1,44,30.29,10.0,Calm,Calm,-,N/A,,Scattered Clouds,0,2012-11-17 01:53:00
8:53 PM,55.0,34.0,45,30.31,10.0,ENE,3.5,-,N/A,,Scattered Clouds,70,2012-11-17 02:53:00
9:53 PM,53.1,33.1,47,30.31,10.0,NE,3.5,-,N/A,,Mostly Cloudy,50,2012-11-17 03:53:00
10:53 PM,52.0,32.0,47,30.31,10.0,Calm,Calm,-,N/A,,Mostly Cloudy,0,2012-11-17 04:53:00
11:53 PM,52.0,32.0,47,30.32,10.0,Calm,Calm,-,N/A,,Mostly Cloudy,0,2012-11-17 05:53:00